sensor_id;sensor_type;location;lat;lon;timestamp;P1;durP1;ratioP1;P2;durP2;ratioP2
32295;SDS011;18781;51.550;5.418;2022-12-11T00:02:02;131.88;;;41.53;;
32295;SDS011;18781;51.550;5.418;2022-12-11T00:04:28;131.60;;;40.03;;
32295;SDS011;18781;51.550;5.418;2022-12-11T00:06:54;128.30;;;41.72;;
32295;SDS011;18781;51.550;5.418;2022-12-11T00:09:20;132.00;;;41.38;;
32295;SDS011;18781;51.550;5.418;2022-12-11T00:11:46;112.72;;;39.15;;
32295;SDS011;18781;51.550;5.418;2022-12-11T00:14:12;133.30;;;41.17;;
32295;SDS011;18781;51.550;5.418;2022-12-11T00:16:39;127.53;;;41.30;;
32295;SDS011;18781;51.550;5.418;2022-12-11T00:19:05;123.60;;;41.05;;
32295;SDS011;18781;51.550;5.418;2022-12-11T00:21:35;127.45;;;41.22;;
32295;SDS011;18781;51.550;5.418;2022-12-11T00:24:00;119.57;;;39.08;;
32295;SDS011;18781;51.550;5.418;2022-12-11T00:26:26;130.55;;;39.47;;
32295;SDS011;18781;51.550;5.418;2022-12-11T00:28:55;123.65;;;40.00;;
32295;SDS011;18781;51.550;5.418;2022-12-11T00:31:21;128.90;;;41.35;;
32295;SDS011;18781;51.550;5.418;2022-12-11T00:33:48;123.72;;;40.95;;
32295;SDS011;18781;51.550;5.418;2022-12-11T00:36:14;117.00;;;41.03;;
32295;SDS011;18781;51.550;5.418;2022-12-11T00:38:42;122.22;;;38.85;;
32295;SDS011;18781;51.550;5.418;2022-12-11T00:41:08;118.78;;;39.00;;
32295;SDS011;18781;51.550;5.418;2022-12-11T00:43:34;109.25;;;37.88;;
32295;SDS011;18781;51.550;5.418;2022-12-11T00:46:00;110.00;;;38.78;;
32295;SDS011;18781;51.550;5.418;2022-12-11T00:48:25;119.72;;;38.88;;
32295;SDS011;18781;51.550;5.418;2022-12-11T00:50:51;118.80;;;39.00;;
32295;SDS011;18781;51.550;5.418;2022-12-11T00:53:17;121.50;;;38.85;;
32295;SDS011;18781;51.550;5.418;2022-12-11T00:55:42;119.68;;;39.90;;
32295;SDS011;18781;51.550;5.418;2022-12-11T00:58:08;116.72;;;39.90;;
32295;SDS011;18781;51.550;5.418;2022-12-11T01:00:35;111.78;;;39.17;;
32295;SDS011;18781;51.550;5.418;2022-12-11T01:03:01;117.88;;;39.65;;
32295;SDS011;18781;51.550;5.418;2022-12-11T01:05:26;116.13;;;41.13;;
32295;SDS011;18781;51.550;5.418;2022-12-11T01:07:52;111.32;;;37.33;;
32295;SDS011;18781;51.550;5.418;2022-12-11T01:10:18;113.07;;;38.83;;
32295;SDS011;18781;51.550;5.418;2022-12-11T01:12:54;118.18;;;38.67;;
32295;SDS011;18781;51.550;5.418;2022-12-11T01:15:22;111.97;;;39.50;;
32295;SDS011;18781;51.550;5.418;2022-12-11T01:17:49;109.40;;;37.05;;
32295;SDS011;18781;51.550;5.418;2022-12-11T01:20:16;108.68;;;37.78;;
32295;SDS011;18781;51.550;5.418;2022-12-11T01:22:42;98.75;;;36.40;;
32295;SDS011;18781;51.550;5.418;2022-12-11T01:25:07;104.72;;;36.25;;
32295;SDS011;18781;51.550;5.418;2022-12-11T01:27:34;110.90;;;38.10;;
32295;SDS011;18781;51.550;5.418;2022-12-11T01:30:00;95.78;;;36.05;;
32295;SDS011;18781;51.550;5.418;2022-12-11T01:32:26;99.20;;;36.00;;
32295;SDS011;18781;51.550;5.418;2022-12-11T01:34:52;91.63;;;32.90;;
32295;SDS011;18781;51.550;5.418;2022-12-11T01:37:18;93.28;;;34.60;;
32295;SDS011;18781;51.550;5.418;2022-12-11T01:39:43;94.15;;;34.92;;
32295;SDS011;18781;51.550;5.418;2022-12-11T01:42:09;91.70;;;33.90;;
32295;SDS011;18781;51.550;5.418;2022-12-11T01:47:06;89.75;;;33.90;;
32295;SDS011;18781;51.550;5.418;2022-12-11T01:49:32;88.97;;;34.25;;
32295;SDS011;18781;51.550;5.418;2022-12-11T01:51:59;89.18;;;33.75;;
32295;SDS011;18781;51.550;5.418;2022-12-11T01:54:30;80.82;;;31.55;;
32295;SDS011;18781;51.550;5.418;2022-12-11T01:56:57;83.65;;;33.20;;
32295;SDS011;18781;51.550;5.418;2022-12-11T01:59:27;86.35;;;32.78;;
32295;SDS011;18781;51.550;5.418;2022-12-11T02:01:59;84.63;;;32.45;;
32295;SDS011;18781;51.550;5.418;2022-12-11T02:04:30;80.18;;;32.55;;
32295;SDS011;18781;51.550;5.418;2022-12-11T02:06:56;84.07;;;31.58;;
32295;SDS011;18781;51.550;5.418;2022-12-11T02:09:23;77.03;;;32.00;;
32295;SDS011;18781;51.550;5.418;2022-12-11T02:12:02;85.90;;;32.97;;
32295;SDS011;18781;51.550;5.418;2022-12-11T02:14:43;85.28;;;32.10;;
32295;SDS011;18781;51.550;5.418;2022-12-11T02:17:50;81.63;;;31.65;;
32295;SDS011;18781;51.550;5.418;2022-12-11T02:20:33;74.45;;;30.77;;
32295;SDS011;18781;51.550;5.418;2022-12-11T02:28:59;80.70;;;31.35;;
32295;SDS011;18781;51.550;5.418;2022-12-11T02:31:44;79.07;;;31.75;;
32295;SDS011;18781;51.550;5.418;2022-12-11T02:34:20;79.65;;;30.35;;
32295;SDS011;18781;51.550;5.418;2022-12-11T02:36:53;72.18;;;28.55;;
32295;SDS011;18781;51.550;5.418;2022-12-11T02:39:23;70.78;;;28.85;;
32295;SDS011;18781;51.550;5.418;2022-12-11T02:41:51;75.97;;;29.83;;
32295;SDS011;18781;51.550;5.418;2022-12-11T02:44:20;73.47;;;30.15;;
32295;SDS011;18781;51.550;5.418;2022-12-11T02:46:48;65.53;;;28.08;;
32295;SDS011;18781;51.550;5.418;2022-12-11T02:49:16;73.25;;;31.63;;
32295;SDS011;18781;51.550;5.418;2022-12-11T02:51:43;72.00;;;29.42;;
32295;SDS011;18781;51.550;5.418;2022-12-11T02:54:42;69.13;;;29.08;;
32295;SDS011;18781;51.550;5.418;2022-12-11T02:57:07;71.28;;;29.13;;
32295;SDS011;18781;51.550;5.418;2022-12-11T02:59:44;69.13;;;29.83;;
32295;SDS011;18781;51.550;5.418;2022-12-11T03:02:11;70.93;;;29.58;;
32295;SDS011;18781;51.550;5.418;2022-12-11T03:04:38;69.18;;;29.10;;
32295;SDS011;18781;51.550;5.418;2022-12-11T03:07:09;73.28;;;30.00;;
32295;SDS011;18781;51.550;5.418;2022-12-11T03:09:40;64.78;;;28.90;;
32295;SDS011;18781;51.550;5.418;2022-12-11T03:12:07;63.58;;;26.80;;
32295;SDS011;18781;51.550;5.418;2022-12-11T03:14:36;65.25;;;26.85;;
32295;SDS011;18781;51.550;5.418;2022-12-11T03:19:46;64.93;;;26.48;;
32295;SDS011;18781;51.550;5.418;2022-12-11T03:22:42;58.03;;;25.45;;
32295;SDS011;18781;51.550;5.418;2022-12-11T03:25:22;48.40;;;23.58;;
32295;SDS011;18781;51.550;5.418;2022-12-11T03:30:35;52.25;;;24.73;;
32295;SDS011;18781;51.550;5.418;2022-12-11T03:33:05;52.45;;;23.77;;
32295;SDS011;18781;51.550;5.418;2022-12-11T03:35:40;48.15;;;23.48;;
32295;SDS011;18781;51.550;5.418;2022-12-11T03:38:10;48.53;;;24.45;;
32295;SDS011;18781;51.550;5.418;2022-12-11T03:40:42;50.50;;;23.50;;
32295;SDS011;18781;51.550;5.418;2022-12-11T03:43:12;47.70;;;23.60;;
32295;SDS011;18781;51.550;5.418;2022-12-11T03:45:39;42.50;;;22.95;;
32295;SDS011;18781;51.550;5.418;2022-12-11T03:48:06;48.58;;;22.10;;
32295;SDS011;18781;51.550;5.418;2022-12-11T03:50:34;43.30;;;21.13;;
32295;SDS011;18781;51.550;5.418;2022-12-11T03:53:00;44.00;;;20.77;;
32295;SDS011;18781;51.550;5.418;2022-12-11T03:55:28;42.00;;;20.88;;
32295;SDS011;18781;51.550;5.418;2022-12-11T03:57:56;41.20;;;21.60;;
32295;SDS011;18781;51.550;5.418;2022-12-11T04:00:21;46.15;;;21.05;;
32295;SDS011;18781;51.550;5.418;2022-12-11T04:02:47;39.53;;;20.05;;
32295;SDS011;18781;51.550;5.418;2022-12-11T04:05:34;36.50;;;19.52;;
32295;SDS011;18781;51.550;5.418;2022-12-11T04:08:00;40.95;;;20.90;;
32295;SDS011;18781;51.550;5.418;2022-12-11T04:10:25;36.85;;;19.60;;
32295;SDS011;18781;51.550;5.418;2022-12-11T04:12:52;43.78;;;21.17;;
32295;SDS011;18781;51.550;5.418;2022-12-11T04:15:18;40.40;;;19.10;;
32295;SDS011;18781;51.550;5.418;2022-12-11T04:17:43;35.55;;;19.33;;
32295;SDS011;18781;51.550;5.418;2022-12-11T04:20:27;36.78;;;19.75;;
32295;SDS011;18781;51.550;5.418;2022-12-11T04:23:13;39.83;;;19.33;;
32295;SDS011;18781;51.550;5.418;2022-12-11T04:26:05;36.92;;;19.20;;
32295;SDS011;18781;51.550;5.418;2022-12-11T04:28:33;40.78;;;20.45;;
32295;SDS011;18781;51.550;5.418;2022-12-11T04:30:59;39.90;;;20.17;;
32295;SDS011;18781;51.550;5.418;2022-12-11T04:33:25;38.22;;;19.30;;
32295;SDS011;18781;51.550;5.418;2022-12-11T04:35:50;37.03;;;19.55;;
32295;SDS011;18781;51.550;5.418;2022-12-11T04:38:16;40.25;;;20.52;;
32295;SDS011;18781;51.550;5.418;2022-12-11T04:40:41;38.22;;;20.38;;
32295;SDS011;18781;51.550;5.418;2022-12-11T04:43:07;37.40;;;19.42;;
32295;SDS011;18781;51.550;5.418;2022-12-11T04:45:33;40.00;;;20.48;;
32295;SDS011;18781;51.550;5.418;2022-12-11T04:47:59;41.65;;;19.67;;
32295;SDS011;18781;51.550;5.418;2022-12-11T04:50:24;37.00;;;19.02;;
32295;SDS011;18781;51.550;5.418;2022-12-11T04:52:53;41.92;;;19.52;;
32295;SDS011;18781;51.550;5.418;2022-12-11T04:55:19;45.63;;;20.00;;
32295;SDS011;18781;51.550;5.418;2022-12-11T04:57:44;36.47;;;18.88;;
32295;SDS011;18781;51.550;5.418;2022-12-11T05:00:10;46.65;;;20.50;;
32295;SDS011;18781;51.550;5.418;2022-12-11T05:02:37;39.33;;;19.55;;
32295;SDS011;18781;51.550;5.418;2022-12-11T05:05:04;41.10;;;20.55;;
32295;SDS011;18781;51.550;5.418;2022-12-11T05:07:30;40.28;;;20.02;;
32295;SDS011;18781;51.550;5.418;2022-12-11T05:09:56;38.25;;;20.00;;
32295;SDS011;18781;51.550;5.418;2022-12-11T05:12:22;41.30;;;20.48;;
32295;SDS011;18781;51.550;5.418;2022-12-11T05:14:50;49.58;;;21.90;;
32295;SDS011;18781;51.550;5.418;2022-12-11T05:17:17;43.33;;;21.05;;
32295;SDS011;18781;51.550;5.418;2022-12-11T05:19:42;41.85;;;20.75;;
32295;SDS011;18781;51.550;5.418;2022-12-11T05:22:08;36.17;;;19.17;;
32295;SDS011;18781;51.550;5.418;2022-12-11T05:24:33;39.65;;;19.77;;
32295;SDS011;18781;51.550;5.418;2022-12-11T05:26:59;39.03;;;19.35;;
32295;SDS011;18781;51.550;5.418;2022-12-11T05:29:24;39.33;;;19.73;;
32295;SDS011;18781;51.550;5.418;2022-12-11T05:31:50;39.08;;;19.65;;
32295;SDS011;18781;51.550;5.418;2022-12-11T05:34:16;36.90;;;19.83;;
32295;SDS011;18781;51.550;5.418;2022-12-11T05:36:41;42.00;;;21.08;;
32295;SDS011;18781;51.550;5.418;2022-12-11T05:39:07;37.95;;;19.85;;
32295;SDS011;18781;51.550;5.418;2022-12-11T05:41:33;35.78;;;19.15;;
32295;SDS011;18781;51.550;5.418;2022-12-11T05:43:59;40.75;;;20.20;;
32295;SDS011;18781;51.550;5.418;2022-12-11T05:46:25;36.92;;;19.23;;
32295;SDS011;18781;51.550;5.418;2022-12-11T05:48:53;34.92;;;18.98;;
32295;SDS011;18781;51.550;5.418;2022-12-11T05:51:21;41.40;;;19.88;;
32295;SDS011;18781;51.550;5.418;2022-12-11T05:53:48;40.78;;;20.02;;
32295;SDS011;18781;51.550;5.418;2022-12-11T05:56:16;35.97;;;18.95;;
32295;SDS011;18781;51.550;5.418;2022-12-11T05:58:43;39.70;;;19.43;;
32295;SDS011;18781;51.550;5.418;2022-12-11T06:01:18;39.95;;;19.25;;
32295;SDS011;18781;51.550;5.418;2022-12-11T06:04:04;37.17;;;18.67;;
32295;SDS011;18781;51.550;5.418;2022-12-11T06:06:30;38.22;;;18.25;;
32295;SDS011;18781;51.550;5.418;2022-12-11T06:08:57;33.55;;;17.48;;
32295;SDS011;18781;51.550;5.418;2022-12-11T06:11:24;37.20;;;17.63;;
32295;SDS011;18781;51.550;5.418;2022-12-11T06:13:52;35.05;;;18.00;;
32295;SDS011;18781;51.550;5.418;2022-12-11T06:16:18;35.47;;;18.50;;
32295;SDS011;18781;51.550;5.418;2022-12-11T06:18:44;38.53;;;18.13;;
32295;SDS011;18781;51.550;5.418;2022-12-11T06:21:17;37.25;;;17.30;;
32295;SDS011;18781;51.550;5.418;2022-12-11T06:23:43;34.47;;;17.67;;
32295;SDS011;18781;51.550;5.418;2022-12-11T06:26:10;38.00;;;19.17;;
32295;SDS011;18781;51.550;5.418;2022-12-11T06:28:36;33.25;;;17.73;;
32295;SDS011;18781;51.550;5.418;2022-12-11T06:31:02;36.08;;;18.42;;
32295;SDS011;18781;51.550;5.418;2022-12-11T06:33:28;33.67;;;18.17;;
32295;SDS011;18781;51.550;5.418;2022-12-11T06:35:54;36.75;;;18.85;;
32295;SDS011;18781;51.550;5.418;2022-12-11T06:38:20;37.22;;;18.10;;
32295;SDS011;18781;51.550;5.418;2022-12-11T06:40:53;33.33;;;18.45;;
32295;SDS011;18781;51.550;5.418;2022-12-11T06:43:20;36.65;;;18.67;;
32295;SDS011;18781;51.550;5.418;2022-12-11T06:45:45;35.20;;;18.27;;
32295;SDS011;18781;51.550;5.418;2022-12-11T06:48:12;41.75;;;20.25;;
32295;SDS011;18781;51.550;5.418;2022-12-11T06:50:37;37.90;;;18.23;;
32295;SDS011;18781;51.550;5.418;2022-12-11T06:53:03;43.92;;;19.98;;
32295;SDS011;18781;51.550;5.418;2022-12-11T06:55:29;35.70;;;19.00;;
32295;SDS011;18781;51.550;5.418;2022-12-11T06:57:54;40.33;;;19.55;;
32295;SDS011;18781;51.550;5.418;2022-12-11T07:00:20;38.45;;;19.10;;
32295;SDS011;18781;51.550;5.418;2022-12-11T07:02:45;38.58;;;20.30;;
32295;SDS011;18781;51.550;5.418;2022-12-11T07:05:11;42.33;;;19.95;;
32295;SDS011;18781;51.550;5.418;2022-12-11T07:07:37;40.72;;;19.30;;
32295;SDS011;18781;51.550;5.418;2022-12-11T07:10:03;32.55;;;18.40;;
32295;SDS011;18781;51.550;5.418;2022-12-11T07:12:29;38.15;;;19.27;;
32295;SDS011;18781;51.550;5.418;2022-12-11T07:14:54;35.38;;;18.70;;
32295;SDS011;18781;51.550;5.418;2022-12-11T07:17:21;43.03;;;19.45;;
32295;SDS011;18781;51.550;5.418;2022-12-11T07:19:46;37.58;;;19.58;;
32295;SDS011;18781;51.550;5.418;2022-12-11T07:22:12;39.83;;;20.25;;
32295;SDS011;18781;51.550;5.418;2022-12-11T07:24:37;39.45;;;20.35;;
32295;SDS011;18781;51.550;5.418;2022-12-11T07:27:03;42.03;;;20.20;;
32295;SDS011;18781;51.550;5.418;2022-12-11T07:29:29;36.30;;;19.30;;
32295;SDS011;18781;51.550;5.418;2022-12-11T07:31:54;42.38;;;20.05;;
32295;SDS011;18781;51.550;5.418;2022-12-11T07:34:20;39.58;;;20.15;;
32295;SDS011;18781;51.550;5.418;2022-12-11T07:36:46;41.33;;;19.67;;
32295;SDS011;18781;51.550;5.418;2022-12-11T07:39:11;37.78;;;19.08;;
32295;SDS011;18781;51.550;5.418;2022-12-11T07:41:37;42.20;;;20.55;;
32295;SDS011;18781;51.550;5.418;2022-12-11T07:44:03;43.97;;;20.63;;
32295;SDS011;18781;51.550;5.418;2022-12-11T07:46:30;41.08;;;20.67;;
32295;SDS011;18781;51.550;5.418;2022-12-11T07:48:56;39.40;;;19.60;;
32295;SDS011;18781;51.550;5.418;2022-12-11T07:51:24;39.58;;;19.58;;
32295;SDS011;18781;51.550;5.418;2022-12-11T07:53:55;35.72;;;18.75;;
32295;SDS011;18781;51.550;5.418;2022-12-11T07:56:22;36.13;;;19.33;;
32295;SDS011;18781;51.550;5.418;2022-12-11T07:58:48;44.28;;;21.88;;
32295;SDS011;18781;51.550;5.418;2022-12-11T08:01:18;42.05;;;21.85;;
32295;SDS011;18781;51.550;5.418;2022-12-11T08:03:45;41.55;;;21.42;;
32295;SDS011;18781;51.550;5.418;2022-12-11T08:06:11;44.70;;;20.88;;
32295;SDS011;18781;51.550;5.418;2022-12-11T08:08:38;43.67;;;21.20;;
32295;SDS011;18781;51.550;5.418;2022-12-11T08:11:06;44.25;;;21.23;;
32295;SDS011;18781;51.550;5.418;2022-12-11T08:13:33;40.83;;;20.42;;
32295;SDS011;18781;51.550;5.418;2022-12-11T08:16:03;39.75;;;19.92;;
32295;SDS011;18781;51.550;5.418;2022-12-11T08:18:30;43.40;;;20.98;;
32295;SDS011;18781;51.550;5.418;2022-12-11T08:20:56;44.15;;;20.02;;
32295;SDS011;18781;51.550;5.418;2022-12-11T08:23:22;43.40;;;20.75;;
32295;SDS011;18781;51.550;5.418;2022-12-11T08:25:47;41.67;;;20.02;;
32295;SDS011;18781;51.550;5.418;2022-12-11T08:28:13;37.85;;;18.83;;
32295;SDS011;18781;51.550;5.418;2022-12-11T08:30:38;56.30;;;21.67;;
32295;SDS011;18781;51.550;5.418;2022-12-11T08:33:04;46.05;;;20.85;;
32295;SDS011;18781;51.550;5.418;2022-12-11T08:35:30;45.05;;;21.95;;
32295;SDS011;18781;51.550;5.418;2022-12-11T08:37:56;41.75;;;20.77;;
32295;SDS011;18781;51.550;5.418;2022-12-11T08:40:21;47.63;;;22.10;;
32295;SDS011;18781;51.550;5.418;2022-12-11T08:42:47;43.47;;;21.02;;
32295;SDS011;18781;51.550;5.418;2022-12-11T08:45:13;48.58;;;22.23;;
32295;SDS011;18781;51.550;5.418;2022-12-11T08:47:38;47.45;;;21.15;;
32295;SDS011;18781;51.550;5.418;2022-12-11T08:50:04;46.13;;;21.48;;
32295;SDS011;18781;51.550;5.418;2022-12-11T08:52:30;42.58;;;21.15;;
32295;SDS011;18781;51.550;5.418;2022-12-11T08:54:57;44.47;;;21.13;;
32295;SDS011;18781;51.550;5.418;2022-12-11T08:57:23;43.95;;;21.73;;
32295;SDS011;18781;51.550;5.418;2022-12-11T08:59:49;104.40;;;53.53;;
32295;SDS011;18781;51.550;5.418;2022-12-11T09:02:14;76.47;;;40.00;;
32295;SDS011;18781;51.550;5.418;2022-12-11T09:04:40;53.70;;;26.08;;
32295;SDS011;18781;51.550;5.418;2022-12-11T09:07:05;53.58;;;24.92;;
32295;SDS011;18781;51.550;5.418;2022-12-11T09:09:31;52.72;;;24.02;;
32295;SDS011;18781;51.550;5.418;2022-12-11T09:11:57;47.15;;;21.92;;
32295;SDS011;18781;51.550;5.418;2022-12-11T09:14:23;45.50;;;21.13;;
32295;SDS011;18781;51.550;5.418;2022-12-11T09:16:48;44.60;;;20.85;;
32295;SDS011;18781;51.550;5.418;2022-12-11T09:19:14;42.38;;;21.55;;
32295;SDS011;18781;51.550;5.418;2022-12-11T09:21:41;45.25;;;20.92;;
32295;SDS011;18781;51.550;5.418;2022-12-11T09:24:08;44.70;;;21.05;;
32295;SDS011;18781;51.550;5.418;2022-12-11T09:26:35;46.78;;;20.35;;
32295;SDS011;18781;51.550;5.418;2022-12-11T09:29:02;43.38;;;20.88;;
32295;SDS011;18781;51.550;5.418;2022-12-11T09:31:30;46.25;;;20.77;;
32295;SDS011;18781;51.550;5.418;2022-12-11T09:33:59;45.57;;;21.93;;
32295;SDS011;18781;51.550;5.418;2022-12-11T09:36:26;45.00;;;20.90;;
32295;SDS011;18781;51.550;5.418;2022-12-11T09:38:52;47.88;;;21.27;;
32295;SDS011;18781;51.550;5.418;2022-12-11T09:47:26;47.75;;;22.17;;
32295;SDS011;18781;51.550;5.418;2022-12-11T09:55:30;45.53;;;22.92;;
32295;SDS011;18781;51.550;5.418;2022-12-11T09:58:13;48.08;;;22.38;;
32295;SDS011;18781;51.550;5.418;2022-12-11T10:06:57;55.38;;;25.63;;
32295;SDS011;18781;51.550;5.418;2022-12-11T10:17:12;55.03;;;23.95;;
32295;SDS011;18781;51.550;5.418;2022-12-11T10:19:44;50.85;;;22.45;;
32295;SDS011;18781;51.550;5.418;2022-12-11T10:22:12;50.38;;;22.73;;
32295;SDS011;18781;51.550;5.418;2022-12-11T10:24:54;50.92;;;24.65;;
32295;SDS011;18781;51.550;5.418;2022-12-11T10:27:23;52.53;;;23.95;;
32295;SDS011;18781;51.550;5.418;2022-12-11T10:32:42;47.45;;;23.15;;
32295;SDS011;18781;51.550;5.418;2022-12-11T10:35:25;46.20;;;21.25;;
32295;SDS011;18781;51.550;5.418;2022-12-11T10:38:00;45.58;;;20.88;;
32295;SDS011;18781;51.550;5.418;2022-12-11T10:41:05;43.63;;;20.20;;
32295;SDS011;18781;51.550;5.418;2022-12-11T10:43:35;44.38;;;20.13;;
32295;SDS011;18781;51.550;5.418;2022-12-11T10:46:20;44.97;;;20.25;;
32295;SDS011;18781;51.550;5.418;2022-12-11T10:53:52;48.55;;;25.00;;
32295;SDS011;18781;51.550;5.418;2022-12-11T10:56:27;46.47;;;22.83;;
32295;SDS011;18781;51.550;5.418;2022-12-11T10:58:55;43.78;;;21.55;;
32295;SDS011;18781;51.550;5.418;2022-12-11T11:01:22;50.55;;;20.95;;
32295;SDS011;18781;51.550;5.418;2022-12-11T11:03:52;46.95;;;21.85;;
32295;SDS011;18781;51.550;5.418;2022-12-11T11:06:31;44.78;;;21.58;;
32295;SDS011;18781;51.550;5.418;2022-12-11T11:08:58;44.90;;;20.98;;
32295;SDS011;18781;51.550;5.418;2022-12-11T11:14:14;45.72;;;21.63;;
32295;SDS011;18781;51.550;5.418;2022-12-11T11:16:40;43.72;;;20.73;;
32295;SDS011;18781;51.550;5.418;2022-12-11T11:19:14;47.38;;;21.15;;
32295;SDS011;18781;51.550;5.418;2022-12-11T11:21:47;44.85;;;20.27;;
32295;SDS011;18781;51.550;5.418;2022-12-11T11:24:25;50.65;;;26.27;;
32295;SDS011;18781;51.550;5.418;2022-12-11T11:26:51;47.40;;;22.42;;
32295;SDS011;18781;51.550;5.418;2022-12-11T11:29:29;43.65;;;21.77;;
32295;SDS011;18781;51.550;5.418;2022-12-11T11:32:21;43.05;;;20.92;;
32295;SDS011;18781;51.550;5.418;2022-12-11T11:34:49;45.25;;;21.35;;
32295;SDS011;18781;51.550;5.418;2022-12-11T11:37:33;43.28;;;20.90;;
32295;SDS011;18781;51.550;5.418;2022-12-11T11:40:05;45.40;;;21.30;;
32295;SDS011;18781;51.550;5.418;2022-12-11T11:45:45;49.22;;;22.55;;
32295;SDS011;18781;51.550;5.418;2022-12-11T11:51:17;46.72;;;21.85;;
32295;SDS011;18781;51.550;5.418;2022-12-11T11:54:14;46.08;;;22.33;;
32295;SDS011;18781;51.550;5.418;2022-12-11T11:56:55;47.60;;;21.02;;
32295;SDS011;18781;51.550;5.418;2022-12-11T11:59:24;47.35;;;21.92;;
32295;SDS011;18781;51.550;5.418;2022-12-11T12:01:58;43.40;;;21.17;;
32295;SDS011;18781;51.550;5.418;2022-12-11T12:04:25;41.60;;;20.48;;
32295;SDS011;18781;51.550;5.418;2022-12-11T12:06:59;43.70;;;22.15;;
32295;SDS011;18781;51.550;5.418;2022-12-11T12:09:40;39.30;;;19.52;;
32295;SDS011;18781;51.550;5.418;2022-12-11T12:18:02;42.83;;;21.23;;
32295;SDS011;18781;51.550;5.418;2022-12-11T12:32:35;38.60;;;20.63;;
32295;SDS011;18781;51.550;5.418;2022-12-11T12:38:12;41.95;;;20.77;;
32295;SDS011;18781;51.550;5.418;2022-12-11T12:43:59;38.75;;;19.90;;
32295;SDS011;18781;51.550;5.418;2022-12-11T12:46:51;40.20;;;19.45;;
32295;SDS011;18781;51.550;5.418;2022-12-11T12:49:27;39.90;;;20.20;;
32295;SDS011;18781;51.550;5.418;2022-12-11T12:52:00;45.08;;;21.23;;
32295;SDS011;18781;51.550;5.418;2022-12-11T12:54:27;39.50;;;19.60;;
32295;SDS011;18781;51.550;5.418;2022-12-11T12:56:56;36.20;;;19.63;;
32295;SDS011;18781;51.550;5.418;2022-12-11T12:59:24;42.08;;;20.80;;
32295;SDS011;18781;51.550;5.418;2022-12-11T13:01:55;35.70;;;18.27;;
32295;SDS011;18781;51.550;5.418;2022-12-11T13:04:28;35.70;;;18.95;;
32295;SDS011;18781;51.550;5.418;2022-12-11T13:07:13;38.50;;;19.77;;
32295;SDS011;18781;51.550;5.418;2022-12-11T13:09:53;38.65;;;19.65;;
32295;SDS011;18781;51.550;5.418;2022-12-11T13:12:27;38.13;;;19.25;;
32295;SDS011;18781;51.550;5.418;2022-12-11T13:15:20;34.92;;;18.40;;
32295;SDS011;18781;51.550;5.418;2022-12-11T13:17:49;41.25;;;18.75;;
32295;SDS011;18781;51.550;5.418;2022-12-11T13:20:16;34.25;;;18.50;;
32295;SDS011;18781;51.550;5.418;2022-12-11T13:22:48;31.85;;;17.55;;
32295;SDS011;18781;51.550;5.418;2022-12-11T13:26:00;32.28;;;17.15;;
32295;SDS011;18781;51.550;5.418;2022-12-11T13:33:23;35.65;;;18.08;;
32295;SDS011;18781;51.550;5.418;2022-12-11T13:36:01;32.17;;;17.40;;
32295;SDS011;18781;51.550;5.418;2022-12-11T13:41:17;28.88;;;17.30;;
32295;SDS011;18781;51.550;5.418;2022-12-11T13:43:44;32.60;;;18.98;;
32295;SDS011;18781;51.550;5.418;2022-12-11T13:46:12;32.53;;;18.17;;
32295;SDS011;18781;51.550;5.418;2022-12-11T13:48:47;33.45;;;17.65;;
32295;SDS011;18781;51.550;5.418;2022-12-11T13:51:21;31.10;;;17.25;;
32295;SDS011;18781;51.550;5.418;2022-12-11T13:54:00;33.35;;;17.08;;
32295;SDS011;18781;51.550;5.418;2022-12-11T13:56:31;33.13;;;16.67;;
32295;SDS011;18781;51.550;5.418;2022-12-11T13:58:58;38.22;;;16.02;;
32295;SDS011;18781;51.550;5.418;2022-12-11T14:01:24;31.30;;;16.35;;
32295;SDS011;18781;51.550;5.418;2022-12-11T14:04:03;31.35;;;17.95;;
32295;SDS011;18781;51.550;5.418;2022-12-11T14:06:34;34.50;;;19.48;;
32295;SDS011;18781;51.550;5.418;2022-12-11T14:09:01;36.45;;;18.52;;
32295;SDS011;18781;51.550;5.418;2022-12-11T14:11:38;31.20;;;18.45;;
32295;SDS011;18781;51.550;5.418;2022-12-11T14:14:07;32.25;;;17.85;;
32295;SDS011;18781;51.550;5.418;2022-12-11T14:19:13;32.13;;;17.60;;
32295;SDS011;18781;51.550;5.418;2022-12-11T14:21:40;32.70;;;18.33;;
32295;SDS011;18781;51.550;5.418;2022-12-11T14:24:09;33.08;;;19.67;;
32295;SDS011;18781;51.550;5.418;2022-12-11T14:26:37;34.58;;;18.65;;
32295;SDS011;18781;51.550;5.418;2022-12-11T14:29:03;34.85;;;18.67;;
32295;SDS011;18781;51.550;5.418;2022-12-11T14:31:30;35.25;;;19.65;;
32295;SDS011;18781;51.550;5.418;2022-12-11T14:34:12;29.35;;;19.08;;
32295;SDS011;18781;51.550;5.418;2022-12-11T14:36:43;34.00;;;20.40;;
32295;SDS011;18781;51.550;5.418;2022-12-11T14:39:11;35.95;;;19.73;;
32295;SDS011;18781;51.550;5.418;2022-12-11T14:42:04;36.70;;;21.48;;
32295;SDS011;18781;51.550;5.418;2022-12-11T14:44:34;41.03;;;22.15;;
32295;SDS011;18781;51.550;5.418;2022-12-11T14:47:13;45.25;;;24.80;;
32295;SDS011;18781;51.550;5.418;2022-12-11T14:49:58;44.22;;;25.05;;
32295;SDS011;18781;51.550;5.418;2022-12-11T14:52:38;38.35;;;23.33;;
32295;SDS011;18781;51.550;5.418;2022-12-11T14:55:16;38.47;;;21.80;;
32295;SDS011;18781;51.550;5.418;2022-12-11T14:57:56;34.58;;;21.33;;
32295;SDS011;18781;51.550;5.418;2022-12-11T15:00:28;34.50;;;21.55;;
32295;SDS011;18781;51.550;5.418;2022-12-11T15:03:04;32.70;;;20.45;;
32295;SDS011;18781;51.550;5.418;2022-12-11T15:05:46;36.72;;;22.05;;
32295;SDS011;18781;51.550;5.418;2022-12-11T15:08:17;35.35;;;21.83;;
32295;SDS011;18781;51.550;5.418;2022-12-11T15:13:35;35.60;;;20.83;;
32295;SDS011;18781;51.550;5.418;2022-12-11T15:16:04;37.10;;;21.15;;
32295;SDS011;18781;51.550;5.418;2022-12-11T15:18:32;39.90;;;22.13;;
32295;SDS011;18781;51.550;5.418;2022-12-11T15:21:01;40.22;;;23.20;;
32295;SDS011;18781;51.550;5.418;2022-12-11T15:23:30;37.60;;;21.17;;
32295;SDS011;18781;51.550;5.418;2022-12-11T15:25:59;37.85;;;20.35;;
32295;SDS011;18781;51.550;5.418;2022-12-11T15:30:58;35.78;;;20.65;;
32295;SDS011;18781;51.550;5.418;2022-12-11T15:33:25;34.22;;;20.92;;
32295;SDS011;18781;51.550;5.418;2022-12-11T15:36:02;34.45;;;21.52;;
32295;SDS011;18781;51.550;5.418;2022-12-11T15:38:45;34.53;;;20.80;;
32295;SDS011;18781;51.550;5.418;2022-12-11T15:41:14;39.17;;;22.05;;
32295;SDS011;18781;51.550;5.418;2022-12-11T15:43:41;37.30;;;21.83;;
32295;SDS011;18781;51.550;5.418;2022-12-11T15:46:08;34.78;;;20.67;;
32295;SDS011;18781;51.550;5.418;2022-12-11T15:48:34;36.78;;;20.90;;
32295;SDS011;18781;51.550;5.418;2022-12-11T15:50:59;31.42;;;19.42;;
32295;SDS011;18781;51.550;5.418;2022-12-11T15:53:25;33.55;;;19.55;;
32295;SDS011;18781;51.550;5.418;2022-12-11T15:55:51;31.52;;;18.90;;
32295;SDS011;18781;51.550;5.418;2022-12-11T15:58:17;30.58;;;18.67;;
32295;SDS011;18781;51.550;5.418;2022-12-11T16:00:44;30.63;;;19.17;;
32295;SDS011;18781;51.550;5.418;2022-12-11T16:03:12;30.23;;;18.42;;
32295;SDS011;18781;51.550;5.418;2022-12-11T16:05:38;32.47;;;19.33;;
32295;SDS011;18781;51.550;5.418;2022-12-11T16:08:05;30.63;;;17.90;;
32295;SDS011;18781;51.550;5.418;2022-12-11T16:10:30;28.85;;;17.67;;
32295;SDS011;18781;51.550;5.418;2022-12-11T16:12:56;35.28;;;16.40;;